sensor_id;sensor_type;location;lat;lon;timestamp;P1;durP1;ratioP1;P2;durP2;ratioP2
18677;SDS011;9469;51.114;13.914;2022-10-16T00:02:57;21.47;;;16.17;;
18677;SDS011;9469;51.114;13.914;2022-10-16T00:08:02;22.57;;;16.60;;
18677;SDS011;9469;51.114;13.914;2022-10-16T00:13:10;19.00;;;15.77;;
18677;SDS011;9469;51.114;13.914;2022-10-16T00:18:15;19.87;;;15.77;;
18677;SDS011;9469;51.114;13.914;2022-10-16T00:23:19;18.80;;;15.97;;
18677;SDS011;9469;51.114;13.914;2022-10-16T00:28:28;20.10;;;16.30;;
18677;SDS011;9469;51.114;13.914;2022-10-16T00:33:33;20.53;;;15.90;;
18677;SDS011;9469;51.114;13.914;2022-10-16T00:38:38;18.30;;;15.80;;
18677;SDS011;9469;51.114;13.914;2022-10-16T00:43:46;19.30;;;16.10;;
18677;SDS011;9469;51.114;13.914;2022-10-16T00:48:54;20.90;;;16.33;;
18677;SDS011;9469;51.114;13.914;2022-10-16T00:54:06;19.23;;;15.57;;
18677;SDS011;9469;51.114;13.914;2022-10-16T00:59:20;20.87;;;15.53;;
18677;SDS011;9469;51.114;13.914;2022-10-16T01:04:30;23.20;;;17.13;;
18677;SDS011;9469;51.114;13.914;2022-10-16T01:09:47;20.30;;;16.37;;
18677;SDS011;9469;51.114;13.914;2022-10-16T01:15:04;20.40;;;16.27;;
18677;SDS011;9469;51.114;13.914;2022-10-16T01:20:19;20.90;;;17.30;;
18677;SDS011;9469;51.114;13.914;2022-10-16T01:25:32;21.60;;;17.63;;
18677;SDS011;9469;51.114;13.914;2022-10-16T01:30:51;27.53;;;18.13;;
18677;SDS011;9469;51.114;13.914;2022-10-16T01:36:02;22.80;;;18.27;;
18677;SDS011;9469;51.114;13.914;2022-10-16T01:41:14;23.47;;;19.40;;
18677;SDS011;9469;51.114;13.914;2022-10-16T01:46:25;22.57;;;19.03;;
18677;SDS011;9469;51.114;13.914;2022-10-16T01:51:31;22.77;;;19.97;;
18677;SDS011;9469;51.114;13.914;2022-10-16T01:56:38;21.20;;;18.87;;
18677;SDS011;9469;51.114;13.914;2022-10-16T02:01:47;21.70;;;18.97;;
18677;SDS011;9469;51.114;13.914;2022-10-16T02:06:56;23.17;;;18.30;;
18677;SDS011;9469;51.114;13.914;2022-10-16T02:12:03;20.40;;;17.57;;
18677;SDS011;9469;51.114;13.914;2022-10-16T02:17:17;22.90;;;18.47;;
18677;SDS011;9469;51.114;13.914;2022-10-16T02:22:24;20.67;;;17.70;;
18677;SDS011;9469;51.114;13.914;2022-10-16T02:27:33;21.07;;;18.40;;
18677;SDS011;9469;51.114;13.914;2022-10-16T02:32:45;18.70;;;16.70;;
18677;SDS011;9469;51.114;13.914;2022-10-16T02:37:52;22.43;;;16.23;;
18677;SDS011;9469;51.114;13.914;2022-10-16T02:42:59;19.50;;;16.50;;
18677;SDS011;9469;51.114;13.914;2022-10-16T02:48:07;19.87;;;16.17;;
18677;SDS011;9469;51.114;13.914;2022-10-16T02:53:12;17.47;;;15.13;;
18677;SDS011;9469;51.114;13.914;2022-10-16T02:58:16;19.03;;;16.57;;
18677;SDS011;9469;51.114;13.914;2022-10-16T03:03:24;20.47;;;17.00;;
18677;SDS011;9469;51.114;13.914;2022-10-16T03:08:29;18.67;;;16.23;;
18677;SDS011;9469;51.114;13.914;2022-10-16T03:13:33;17.93;;;15.90;;
18677;SDS011;9469;51.114;13.914;2022-10-16T03:18:41;15.83;;;14.13;;
18677;SDS011;9469;51.114;13.914;2022-10-16T03:23:46;17.57;;;14.90;;
18677;SDS011;9469;51.114;13.914;2022-10-16T03:28:51;17.03;;;15.27;;
18677;SDS011;9469;51.114;13.914;2022-10-16T03:33:58;16.97;;;14.87;;
18677;SDS011;9469;51.114;13.914;2022-10-16T03:39:03;17.30;;;14.70;;
18677;SDS011;9469;51.114;13.914;2022-10-16T03:44:08;15.70;;;14.17;;
18677;SDS011;9469;51.114;13.914;2022-10-16T03:49:16;18.57;;;14.80;;
18677;SDS011;9469;51.114;13.914;2022-10-16T03:54:21;17.40;;;15.43;;
18677;SDS011;9469;51.114;13.914;2022-10-16T03:59:26;15.93;;;14.33;;
18677;SDS011;9469;51.114;13.914;2022-10-16T04:04:33;16.90;;;14.73;;
18677;SDS011;9469;51.114;13.914;2022-10-16T04:09:38;16.53;;;14.80;;
18677;SDS011;9469;51.114;13.914;2022-10-16T04:14:43;16.70;;;14.20;;
18677;SDS011;9469;51.114;13.914;2022-10-16T04:19:50;16.17;;;14.47;;
18677;SDS011;9469;51.114;13.914;2022-10-16T04:24:56;15.87;;;14.27;;
18677;SDS011;9469;51.114;13.914;2022-10-16T04:30:00;16.63;;;14.87;;
18677;SDS011;9469;51.114;13.914;2022-10-16T04:35:08;19.67;;;15.00;;
18677;SDS011;9469;51.114;13.914;2022-10-16T04:40:13;17.07;;;15.20;;
18677;SDS011;9469;51.114;13.914;2022-10-16T04:45:18;15.93;;;14.23;;
18677;SDS011;9469;51.114;13.914;2022-10-16T04:50:26;19.20;;;14.73;;
18677;SDS011;9469;51.114;13.914;2022-10-16T04:55:40;14.60;;;13.03;;
18677;SDS011;9469;51.114;13.914;2022-10-16T05:00:47;14.63;;;12.80;;
18677;SDS011;9469;51.114;13.914;2022-10-16T05:05:54;15.60;;;14.03;;
18677;SDS011;9469;51.114;13.914;2022-10-16T05:10:59;14.80;;;13.00;;
18677;SDS011;9469;51.114;13.914;2022-10-16T05:16:05;14.70;;;13.27;;
18677;SDS011;9469;51.114;13.914;2022-10-16T05:21:13;16.13;;;13.40;;
18677;SDS011;9469;51.114;13.914;2022-10-16T05:26:18;13.97;;;12.47;;
18677;SDS011;9469;51.114;13.914;2022-10-16T05:31:23;13.97;;;12.57;;
18677;SDS011;9469;51.114;13.914;2022-10-16T05:36:30;13.60;;;12.30;;
18677;SDS011;9469;51.114;13.914;2022-10-16T05:41:35;13.70;;;12.30;;
18677;SDS011;9469;51.114;13.914;2022-10-16T05:46:40;15.67;;;14.20;;
18677;SDS011;9469;51.114;13.914;2022-10-16T05:51:47;16.87;;;15.17;;
18677;SDS011;9469;51.114;13.914;2022-10-16T05:56:52;19.07;;;16.47;;
18677;SDS011;9469;51.114;13.914;2022-10-16T06:01:57;19.50;;;17.07;;
18677;SDS011;9469;51.114;13.914;2022-10-16T06:07:04;19.63;;;17.17;;
18677;SDS011;9469;51.114;13.914;2022-10-16T06:12:09;23.40;;;18.33;;
18677;SDS011;9469;51.114;13.914;2022-10-16T06:17:14;21.40;;;19.10;;
18677;SDS011;9469;51.114;13.914;2022-10-16T06:22:22;19.80;;;17.70;;
18677;SDS011;9469;51.114;13.914;2022-10-16T06:27:26;18.97;;;16.97;;
18677;SDS011;9469;51.114;13.914;2022-10-16T06:32:31;19.50;;;17.03;;
18677;SDS011;9469;51.114;13.914;2022-10-16T06:37:39;16.70;;;15.00;;
18677;SDS011;9469;51.114;13.914;2022-10-16T06:42:44;17.33;;;15.53;;
18677;SDS011;9469;51.114;13.914;2022-10-16T06:47:48;17.30;;;15.17;;
18677;SDS011;9469;51.114;13.914;2022-10-16T06:52:56;16.37;;;14.70;;
18677;SDS011;9469;51.114;13.914;2022-10-16T06:58:01;15.73;;;14.23;;
18677;SDS011;9469;51.114;13.914;2022-10-16T07:03:08;14.23;;;12.73;;
18677;SDS011;9469;51.114;13.914;2022-10-16T07:08:15;15.13;;;13.73;;
18677;SDS011;9469;51.114;13.914;2022-10-16T07:13:20;16.23;;;13.10;;
18677;SDS011;9469;51.114;13.914;2022-10-16T07:18:25;13.67;;;12.33;;
18677;SDS011;9469;51.114;13.914;2022-10-16T07:23:34;14.10;;;12.77;;
18677;SDS011;9469;51.114;13.914;2022-10-16T07:28:39;13.23;;;11.10;;
18677;SDS011;9469;51.114;13.914;2022-10-16T07:33:44;11.87;;;9.97;;
18677;SDS011;9469;51.114;13.914;2022-10-16T07:38:52;10.87;;;9.57;;
18677;SDS011;9469;51.114;13.914;2022-10-16T07:44:00;10.47;;;7.90;;
18677;SDS011;9469;51.114;13.914;2022-10-16T07:49:05;11.07;;;8.33;;
18677;SDS011;9469;51.114;13.914;2022-10-16T07:54:13;8.83;;;7.97;;
18677;SDS011;9469;51.114;13.914;2022-10-16T07:59:18;7.70;;;6.73;;
18677;SDS011;9469;51.114;13.914;2022-10-16T08:04:22;5.87;;;5.37;;
18677;SDS011;9469;51.114;13.914;2022-10-16T08:09:30;5.77;;;4.53;;
18677;SDS011;9469;51.114;13.914;2022-10-16T08:14:35;5.63;;;4.57;;
18677;SDS011;9469;51.114;13.914;2022-10-16T08:19:44;5.87;;;4.33;;
18677;SDS011;9469;51.114;13.914;2022-10-16T08:24:52;5.73;;;4.60;;
18677;SDS011;9469;51.114;13.914;2022-10-16T08:29:57;6.87;;;5.47;;
18677;SDS011;9469;51.114;13.914;2022-10-16T08:35:02;7.10;;;5.97;;
18677;SDS011;9469;51.114;13.914;2022-10-16T08:40:11;8.53;;;6.23;;
18677;SDS011;9469;51.114;13.914;2022-10-16T08:50:53;13.33;;;10.30;;
18677;SDS011;9469;51.114;13.914;2022-10-16T08:56:01;11.37;;;9.43;;
18677;SDS011;9469;51.114;13.914;2022-10-16T09:01:11;10.90;;;9.90;;
18677;SDS011;9469;51.114;13.914;2022-10-16T09:06:21;9.90;;;8.10;;
18677;SDS011;9469;51.114;13.914;2022-10-16T09:11:39;8.07;;;7.20;;
18677;SDS011;9469;51.114;13.914;2022-10-16T09:16:51;6.70;;;5.63;;
18677;SDS011;9469;51.114;13.914;2022-10-16T09:22:01;7.43;;;6.20;;
18677;SDS011;9469;51.114;13.914;2022-10-16T09:27:17;6.53;;;5.93;;
18677;SDS011;9469;51.114;13.914;2022-10-16T09:32:22;5.00;;;4.60;;
18677;SDS011;9469;51.114;13.914;2022-10-16T09:37:27;6.05;;;5.45;;
18677;SDS011;9469;51.114;13.914;2022-10-16T09:42:35;6.20;;;5.60;;
18677;SDS011;9469;51.114;13.914;2022-10-16T09:47:41;6.75;;;6.05;;
18677;SDS011;9469;51.114;13.914;2022-10-16T09:52:48;7.38;;;5.65;;
18677;SDS011;9469;51.114;13.914;2022-10-16T09:57:55;4.70;;;4.30;;
18677;SDS011;9469;51.114;13.914;2022-10-16T10:03:00;4.50;;;4.13;;
18677;SDS011;9469;51.114;13.914;2022-10-16T10:08:05;5.40;;;4.30;;
18677;SDS011;9469;51.114;13.914;2022-10-16T10:13:19;7.33;;;6.63;;
18677;SDS011;9469;51.114;13.914;2022-10-16T10:18:26;7.10;;;5.53;;
18677;SDS011;9469;51.114;13.914;2022-10-16T10:23:33;2.27;;;2.13;;
18677;SDS011;9469;51.114;13.914;2022-10-16T10:28:45;2.83;;;2.53;;
18677;SDS011;9469;51.114;13.914;2022-10-16T10:34:00;1.00;;;1.00;;
18677;SDS011;9469;51.114;13.914;2022-10-16T10:39:19;1.63;;;1.52;;
18677;SDS011;9469;51.114;13.914;2022-10-16T10:44:40;1.42;;;1.30;;
18677;SDS011;9469;51.114;13.914;2022-10-16T10:50:01;2.65;;;1.27;;
18677;SDS011;9469;51.114;13.914;2022-10-16T10:55:15;1.35;;;1.25;;
18677;SDS011;9469;51.114;13.914;2022-10-16T11:00:30;1.02;;;0.90;;
18677;SDS011;9469;51.114;13.914;2022-10-16T11:05:46;2.43;;;1.30;;
18677;SDS011;9469;51.114;13.914;2022-10-16T11:10:54;2.45;;;0.90;;
18677;SDS011;9469;51.114;13.914;2022-10-16T11:16:09;1.83;;;0.70;;
18677;SDS011;9469;51.114;13.914;2022-10-16T11:21:22;0.63;;;0.60;;
18677;SDS011;9469;51.114;13.914;2022-10-16T11:26:33;0.80;;;0.50;;
18677;SDS011;9469;51.114;13.914;2022-10-16T11:31:43;0.80;;;0.60;;
18677;SDS011;9469;51.114;13.914;2022-10-16T11:36:53;3.57;;;0.50;;
18677;SDS011;9469;51.114;13.914;2022-10-16T11:42:03;0.80;;;0.60;;
18677;SDS011;9469;51.114;13.914;2022-10-16T11:47:23;2.03;;;0.40;;
18677;SDS011;9469;51.114;13.914;2022-10-16T11:52:53;1.10;;;0.40;;
18677;SDS011;9469;51.114;13.914;2022-10-16T11:58:03;0.43;;;0.43;;
18677;SDS011;9469;51.114;13.914;2022-10-16T12:03:17;0.50;;;0.50;;
18677;SDS011;9469;51.114;13.914;2022-10-16T12:08:31;1.50;;;0.47;;
18677;SDS011;9469;51.114;13.914;2022-10-16T12:13:39;0.50;;;0.50;;
18677;SDS011;9469;51.114;13.914;2022-10-16T12:19:02;1.97;;;0.40;;
18677;SDS011;9469;51.114;13.914;2022-10-16T12:24:21;1.03;;;0.70;;
18677;SDS011;9469;51.114;13.914;2022-10-16T12:29:35;0.50;;;0.50;;
18677;SDS011;9469;51.114;13.914;2022-10-16T12:34:44;0.77;;;0.43;;
18677;SDS011;9469;51.114;13.914;2022-10-16T12:39:52;0.40;;;0.40;;
18677;SDS011;9469;51.114;13.914;2022-10-16T12:44:58;0.50;;;0.50;;
18677;SDS011;9469;51.114;13.914;2022-10-16T12:55:43;0.40;;;0.40;;
18677;SDS011;9469;51.114;13.914;2022-10-16T13:00:57;0.50;;;0.50;;
18677;SDS011;9469;51.114;13.914;2022-10-16T13:06:08;0.80;;;0.50;;
18677;SDS011;9469;51.114;13.914;2022-10-16T13:11:37;1.93;;;0.50;;
18677;SDS011;9469;51.114;13.914;2022-10-16T13:16:54;1.60;;;0.50;;
18677;SDS011;9469;51.114;13.914;2022-10-16T13:22:15;1.60;;;0.60;;
18677;SDS011;9469;51.114;13.914;2022-10-16T13:27:28;1.50;;;0.40;;
18677;SDS011;9469;51.114;13.914;2022-10-16T13:32:43;1.70;;;0.60;;
18677;SDS011;9469;51.114;13.914;2022-10-16T13:38:02;2.83;;;0.50;;
18677;SDS011;9469;51.114;13.914;2022-10-16T13:43:08;1.80;;;0.60;;
18677;SDS011;9469;51.114;13.914;2022-10-16T13:48:13;1.67;;;0.80;;
18677;SDS011;9469;51.114;13.914;2022-10-16T13:53:21;2.50;;;0.60;;
18677;SDS011;9469;51.114;13.914;2022-10-16T13:58:25;1.70;;;0.70;;
18677;SDS011;9469;51.114;13.914;2022-10-16T14:03:30;1.13;;;1.00;;
18677;SDS011;9469;51.114;13.914;2022-10-16T14:08:41;0.97;;;0.70;;
18677;SDS011;9469;51.114;13.914;2022-10-16T14:13:48;0.97;;;0.67;;
18677;SDS011;9469;51.114;13.914;2022-10-16T14:18:56;3.33;;;0.70;;
18677;SDS011;9469;51.114;13.914;2022-10-16T14:24:12;1.43;;;0.80;;
18677;SDS011;9469;51.114;13.914;2022-10-16T14:29:27;1.13;;;0.80;;
18677;SDS011;9469;51.114;13.914;2022-10-16T14:34:34;1.20;;;0.80;;
18677;SDS011;9469;51.114;13.914;2022-10-16T14:39:48;1.60;;;1.10;;
18677;SDS011;9469;51.114;13.914;2022-10-16T14:44:54;2.70;;;1.00;;
18677;SDS011;9469;51.114;13.914;2022-10-16T14:50:00;3.43;;;0.70;;
18677;SDS011;9469;51.114;13.914;2022-10-16T14:55:08;5.03;;;1.10;;
18677;SDS011;9469;51.114;13.914;2022-10-16T15:00:16;1.73;;;1.60;;
18677;SDS011;9469;51.114;13.914;2022-10-16T15:05:24;8.90;;;5.43;;
18677;SDS011;9469;51.114;13.914;2022-10-16T15:10:35;2.47;;;2.00;;
18677;SDS011;9469;51.114;13.914;2022-10-16T15:15:43;3.00;;;2.70;;
18677;SDS011;9469;51.114;13.914;2022-10-16T15:20:50;5.77;;;2.77;;
18677;SDS011;9469;51.114;13.914;2022-10-16T15:25:58;4.20;;;2.50;;
18677;SDS011;9469;51.114;13.914;2022-10-16T15:31:04;2.67;;;1.90;;
18677;SDS011;9469;51.114;13.914;2022-10-16T15:36:09;6.50;;;4.13;;
18677;SDS011;9469;51.114;13.914;2022-10-16T15:41:17;6.57;;;3.77;;
18677;SDS011;9469;51.114;13.914;2022-10-16T15:46:22;4.20;;;2.43;;
18677;SDS011;9469;51.114;13.914;2022-10-16T15:51:29;5.73;;;2.03;;
18677;SDS011;9469;51.114;13.914;2022-10-16T15:56:38;5.37;;;3.00;;
18677;SDS011;9469;51.114;13.914;2022-10-16T16:01:42;3.80;;;3.40;;
18677;SDS011;9469;51.114;13.914;2022-10-16T16:06:47;3.70;;;3.10;;
18677;SDS011;9469;51.114;13.914;2022-10-16T16:11:55;3.23;;;2.87;;
18677;SDS011;9469;51.114;13.914;2022-10-16T16:17:02;3.90;;;2.33;;
18677;SDS011;9469;51.114;13.914;2022-10-16T16:22:06;6.70;;;2.87;;
18677;SDS011;9469;51.114;13.914;2022-10-16T16:27:16;7.37;;;3.80;;
18677;SDS011;9469;51.114;13.914;2022-10-16T16:32:21;4.87;;;3.07;;
18677;SDS011;9469;51.114;13.914;2022-10-16T16:37:26;9.47;;;4.80;;
18677;SDS011;9469;51.114;13.914;2022-10-16T16:42:34;7.87;;;5.30;;
18677;SDS011;9469;51.114;13.914;2022-10-16T16:47:39;12.83;;;6.00;;
18677;SDS011;9469;51.114;13.914;2022-10-16T16:52:44;8.60;;;5.53;;
18677;SDS011;9469;51.114;13.914;2022-10-16T16:57:51;11.53;;;6.67;;
18677;SDS011;9469;51.114;13.914;2022-10-16T17:02:56;12.63;;;7.30;;
18677;SDS011;9469;51.114;13.914;2022-10-16T17:08:01;27.57;;;18.90;;
18677;SDS011;9469;51.114;13.914;2022-10-16T17:13:09;17.13;;;12.30;;
18677;SDS011;9469;51.114;13.914;2022-10-16T17:18:14;12.17;;;7.97;;
18677;SDS011;9469;51.114;13.914;2022-10-16T17:23:19;7.33;;;4.77;;
18677;SDS011;9469;51.114;13.914;2022-10-16T17:28:26;7.57;;;5.10;;
18677;SDS011;9469;51.114;13.914;2022-10-16T17:33:32;18.17;;;9.90;;
18677;SDS011;9469;51.114;13.914;2022-10-16T17:38:37;9.30;;;6.40;;
18677;SDS011;9469;51.114;13.914;2022-10-16T17:43:46;14.10;;;7.30;;
18677;SDS011;9469;51.114;13.914;2022-10-16T17:48:52;12.07;;;8.13;;
18677;SDS011;9469;51.114;13.914;2022-10-16T17:54:00;14.13;;;8.50;;
18677;SDS011;9469;51.114;13.914;2022-10-16T17:59:08;11.30;;;8.03;;
18677;SDS011;9469;51.114;13.914;2022-10-16T18:04:15;11.57;;;7.43;;
18677;SDS011;9469;51.114;13.914;2022-10-16T18:09:21;10.73;;;6.27;;
18677;SDS011;9469;51.114;13.914;2022-10-16T18:14:29;33.97;;;19.80;;
18677;SDS011;9469;51.114;13.914;2022-10-16T18:19:35;15.87;;;9.87;;
18677;SDS011;9469;51.114;13.914;2022-10-16T18:24:40;15.87;;;7.00;;
18677;SDS011;9469;51.114;13.914;2022-10-16T18:29:48;8.80;;;6.77;;
18677;SDS011;9469;51.114;13.914;2022-10-16T18:34:57;12.80;;;7.40;;
18677;SDS011;9469;51.114;13.914;2022-10-16T18:40:14;12.70;;;9.83;;
18677;SDS011;9469;51.114;13.914;2022-10-16T18:45:20;12.87;;;8.90;;
18677;SDS011;9469;51.114;13.914;2022-10-16T18:50:25;11.00;;;8.70;;
18677;SDS011;9469;51.114;13.914;2022-10-16T18:55:33;13.53;;;8.23;;
18677;SDS011;9469;51.114;13.914;2022-10-16T19:00:38;9.87;;;7.73;;
18677;SDS011;9469;51.114;13.914;2022-10-16T19:05:44;11.67;;;8.40;;
18677;SDS011;9469;51.114;13.914;2022-10-16T19:10:52;12.93;;;9.73;;
18677;SDS011;9469;51.114;13.914;2022-10-16T19:15:57;33.67;;;20.33;;
18677;SDS011;9469;51.114;13.914;2022-10-16T19:21:20;18.50;;;12.43;;
18677;SDS011;9469;51.114;13.914;2022-10-16T19:26:30;12.30;;;9.27;;
18677;SDS011;9469;51.114;13.914;2022-10-16T19:31:42;9.67;;;8.10;;
18677;SDS011;9469;51.114;13.914;2022-10-16T19:36:47;12.23;;;8.50;;
18677;SDS011;9469;51.114;13.914;2022-10-16T19:41:55;12.23;;;9.03;;
18677;SDS011;9469;51.114;13.914;2022-10-16T19:47:00;10.93;;;6.87;;
18677;SDS011;9469;51.114;13.914;2022-10-16T19:52:05;8.87;;;7.43;;
18677;SDS011;9469;51.114;13.914;2022-10-16T19:57:12;8.30;;;7.43;;
18677;SDS011;9469;51.114;13.914;2022-10-16T20:02:19;9.80;;;7.33;;
18677;SDS011;9469;51.114;13.914;2022-10-16T20:07:25;8.63;;;7.33;;
18677;SDS011;9469;51.114;13.914;2022-10-16T20:12:37;11.17;;;6.87;;
18677;SDS011;9469;51.114;13.914;2022-10-16T20:17:43;10.13;;;6.83;;
18677;SDS011;9469;51.114;13.914;2022-10-16T20:22:48;10.50;;;7.87;;
18677;SDS011;9469;51.114;13.914;2022-10-16T20:27:57;11.17;;;6.77;;
18677;SDS011;9469;51.114;13.914;2022-10-16T20:33:02;8.63;;;5.80;;
18677;SDS011;9469;51.114;13.914;2022-10-16T20:38:10;6.13;;;5.50;;
18677;SDS011;9469;51.114;13.914;2022-10-16T20:43:19;7.53;;;5.57;;
18677;SDS011;9469;51.114;13.914;2022-10-16T20:48:23;6.90;;;5.57;;
18677;SDS011;9469;51.114;13.914;2022-10-16T20:53:28;7.20;;;5.40;;
18677;SDS011;9469;51.114;13.914;2022-10-16T20:58:40;8.53;;;5.83;;
18677;SDS011;9469;51.114;13.914;2022-10-16T21:03:48;12.90;;;5.80;;
18677;SDS011;9469;51.114;13.914;2022-10-16T21:08:54;7.83;;;5.60;;
18677;SDS011;9469;51.114;13.914;2022-10-16T21:14:03;13.47;;;6.90;;
18677;SDS011;9469;51.114;13.914;2022-10-16T21:19:09;6.97;;;5.67;;
18677;SDS011;9469;51.114;13.914;2022-10-16T21:24:16;11.60;;;5.60;;
18677;SDS011;9469;51.114;13.914;2022-10-16T21:29:23;5.60;;;5.10;;
18677;SDS011;9469;51.114;13.914;2022-10-16T21:34:29;9.53;;;5.17;;
18677;SDS011;9469;51.114;13.914;2022-10-16T21:39:34;7.00;;;5.83;;
18677;SDS011;9469;51.114;13.914;2022-10-16T21:44:41;9.87;;;5.87;;
18677;SDS011;9469;51.114;13.914;2022-10-16T21:49:46;7.47;;;5.87;;
18677;SDS011;9469;51.114;13.914;2022-10-16T21:54:51;8.53;;;5.63;;
18677;SDS011;9469;51.114;13.914;2022-10-16T21:59:59;6.83;;;5.40;;
18677;SDS011;9469;51.114;13.914;2022-10-16T22:05:09;6.33;;;5.50;;
18677;SDS011;9469;51.114;13.914;2022-10-16T22:10:14;9.03;;;4.63;;
18677;SDS011;9469;51.114;13.914;2022-10-16T22:15:22;5.77;;;4.20;;
18677;SDS011;9469;51.114;13.914;2022-10-16T22:20:27;6.83;;;4.77;;
18677;SDS011;9469;51.114;13.914;2022-10-16T22:25:32;7.20;;;5.33;;
18677;SDS011;9469;51.114;13.914;2022-10-16T22:30:39;10.03;;;5.63;;
18677;SDS011;9469;51.114;13.914;2022-10-16T22:35:44;8.00;;;4.73;;
18677;SDS011;9469;51.114;13.914;2022-10-16T22:40:49;9.00;;;4.90;;
18677;SDS011;9469;51.114;13.914;2022-10-16T22:45:59;4.60;;;4.03;;
18677;SDS011;9469;51.114;13.914;2022-10-16T22:51:05;6.53;;;4.70;;
18677;SDS011;9469;51.114;13.914;2022-10-16T22:56:11;10.40;;;4.70;;
18677;SDS011;9469;51.114;13.914;2022-10-16T23:01:22;7.87;;;4.70;;
18677;SDS011;9469;51.114;13.914;2022-10-16T23:06:29;6.77;;;4.63;;
18677;SDS011;9469;51.114;13.914;2022-10-16T23:11:34;4.83;;;3.67;;
18677;SDS011;9469;51.114;13.914;2022-10-16T23:16:42;5.87;;;4.30;;
18677;SDS011;9469;51.114;13.914;2022-10-16T23:21:46;6.43;;;4.13;;
18677;SDS011;9469;51.114;13.914;2022-10-16T23:26:51;5.33;;;3.80;;
18677;SDS011;9469;51.114;13.914;2022-10-16T23:31:59;8.17;;;4.10;;
18677;SDS011;9469;51.114;13.914;2022-10-16T23:37:04;6.27;;;4.43;;
18677;SDS011;9469;51.114;13.914;2022-10-16T23:42:08;11.77;;;5.97;;
18677;SDS011;9469;51.114;13.914;2022-10-16T23:47:16;8.33;;;5.07;;
18677;SDS011;9469;51.114;13.914;2022-10-16T23:52:21;6.80;;;4.40;;
18677;SDS011;9469;51.114;13.914;2022-10-16T23:57:26;5.77;;;4.30;;
